createdAt,value
2022-09-17T00:01:55.295Z,2.53
2022-09-17T00:04:39.537Z,2.22
2022-09-17T00:07:22.410Z,2.28
2022-09-17T00:10:06.410Z,2.08
2022-09-17T00:12:49.304Z,1.85
2022-09-17T00:15:32.162Z,2.33
2022-09-17T00:18:16.040Z,2.20
2022-09-17T00:21:00.618Z,2.60
2022-09-17T00:23:43.519Z,1.95
2022-09-17T00:26:26.836Z,2.22
2022-09-17T00:29:11.077Z,1.95
2022-09-17T00:31:53.959Z,2.13
2022-09-17T00:34:37.026Z,2.50
2022-09-17T00:37:21.316Z,2.33
2022-09-17T00:40:04.970Z,2.08
2022-09-17T00:42:47.917Z,2.15
2022-09-17T00:45:32.206Z,1.85
2022-09-17T00:48:23.356Z,2.30
2022-09-17T00:51:10.225Z,1.83
2022-09-17T00:53:54.636Z,1.67
2022-09-17T00:56:39.773Z,2.00
2022-09-17T00:59:23.523Z,1.75
2022-09-17T01:02:06.629Z,1.50
2022-09-17T01:04:49.550Z,1.75
2022-09-17T01:07:51.384Z,1.88
2022-09-17T01:11:07.115Z,1.95
2022-09-17T01:14:11.249Z,2.10
2022-09-17T01:17:01.409Z,1.80
2022-09-17T01:20:14.396Z,1.67
2022-09-17T01:23:20.652Z,1.60
2022-09-17T01:26:26.237Z,1.50
2022-09-17T01:29:20.154Z,1.52
2022-09-17T01:32:11.053Z,1.65
2022-09-17T01:35:02.774Z,1.63
2022-09-17T01:37:55.514Z,1.50
2022-09-17T01:40:45.266Z,2.05
2022-09-17T01:43:35.853Z,2.33
2022-09-17T01:46:23.382Z,1.85
2022-09-17T01:49:10.671Z,1.70
2022-09-17T01:51:55.948Z,1.42
2022-09-17T01:54:43.897Z,2.10
2022-09-17T01:57:30.487Z,1.50
2022-09-17T02:00:17.303Z,1.67
2022-09-17T02:03:04.467Z,1.52
2022-09-17T02:05:55.339Z,1.55
2022-09-17T02:08:42.806Z,1.30
2022-09-17T02:11:26.264Z,1.50
2022-09-17T02:14:14.337Z,1.30
2022-09-17T02:17:04.145Z,1.65
2022-09-17T02:19:48.412Z,1.63
2022-09-17T02:22:40.557Z,1.50
2022-09-17T02:25:29.737Z,1.70
2022-09-17T02:28:17.423Z,1.88
2022-09-17T02:31:00.290Z,1.50
2022-09-17T02:33:45.895Z,1.60
2022-09-17T02:36:28.948Z,1.60
2022-09-17T02:39:13.129Z,1.25
2022-09-17T02:42:04.910Z,1.02
2022-09-17T02:44:59.165Z,1.10
2022-09-17T02:47:58.904Z,1.20
2022-09-17T02:51:03.151Z,1.98
2022-09-17T02:53:54.567Z,1.30
2022-09-17T02:56:47.339Z,1.40
2022-09-17T02:59:35.383Z,1.17
2022-09-17T03:02:23.398Z,1.80
2022-09-17T03:05:08.562Z,1.60
2022-09-17T03:07:51.667Z,1.40
2022-09-17T03:10:34.496Z,1.90
2022-09-17T03:13:19.224Z,1.90
2022-09-17T03:18:44.850Z,1.50
2022-09-17T03:21:27.675Z,1.60
2022-09-17T03:24:11.698Z,1.33
2022-09-17T03:26:54.837Z,1.20
2022-09-17T03:29:39.150Z,1.42
2022-09-17T03:32:21.990Z,1.60
2022-09-17T03:35:05.030Z,1.77
2022-09-17T03:37:48.150Z,1.70
2022-09-17T03:40:31.012Z,1.55
2022-09-17T03:43:13.878Z,1.42
2022-09-17T03:45:58.152Z,1.50
2022-09-17T03:48:40.913Z,1.70
2022-09-17T03:51:23.732Z,1.48
2022-09-17T03:54:07.142Z,1.42
2022-09-17T03:56:50.177Z,1.50
2022-09-17T03:59:33.055Z,1.50
2022-09-17T04:02:17.296Z,1.30
2022-09-17T04:05:00.122Z,1.30
2022-09-17T04:07:42.967Z,1.77
2022-09-17T04:10:25.938Z,1.60
2022-09-17T04:13:08.744Z,2.00
2022-09-17T04:15:52.234Z,1.52
2022-09-17T04:18:36.491Z,2.10
2022-09-17T04:21:19.272Z,1.48
2022-09-17T04:24:02.375Z,1.60
2022-09-17T04:26:45.162Z,1.30
2022-09-17T04:29:28.606Z,1.45
2022-09-17T04:32:11.391Z,1.75
2022-09-17T04:34:55.564Z,1.25
2022-09-17T04:37:38.621Z,1.10
2022-09-17T04:40:21.868Z,1.10
2022-09-17T04:43:04.879Z,1.10
2022-09-17T04:45:48.286Z,1.40
2022-09-17T04:48:31.041Z,1.73
2022-09-17T04:51:15.182Z,1.65
2022-09-17T04:53:57.975Z,1.60
2022-09-17T04:56:40.755Z,1.80
2022-09-17T04:59:23.551Z,1.55
2022-09-17T05:02:06.485Z,1.20
2022-09-17T05:04:50.770Z,1.50
2022-09-17T05:07:34.931Z,1.40
2022-09-17T05:10:19.666Z,1.65
2022-09-17T05:15:45.107Z,1.60
2022-09-17T05:18:28.562Z,1.88
2022-09-17T05:21:11.359Z,1.63
2022-09-17T05:23:55.552Z,1.60
2022-09-17T05:26:38.274Z,1.30
2022-09-17T05:29:21.151Z,1.35
2022-09-17T05:32:04.375Z,1.60
2022-09-17T05:34:47.171Z,1.38
2022-09-17T05:37:29.966Z,1.50
2022-09-17T05:40:14.222Z,1.70
2022-09-17T05:42:59.660Z,1.30
2022-09-17T05:45:42.773Z,1.50
2022-09-17T05:48:25.586Z,1.33
2022-09-17T05:51:08.357Z,1.70
2022-09-17T05:53:51.182Z,1.40
2022-09-17T05:56:35.430Z,1.58
2022-09-17T05:59:18.231Z,1.20
2022-09-17T06:02:01.097Z,1.52
2022-09-17T06:04:43.914Z,2.15
2022-09-17T06:07:26.695Z,1.73
2022-09-17T06:10:09.860Z,2.40
2022-09-17T06:12:57.975Z,1.80
2022-09-17T06:15:40.770Z,1.75
2022-09-17T06:18:23.562Z,1.63
2022-09-17T06:21:06.727Z,1.40
2022-09-17T06:23:49.996Z,1.77
2022-09-17T06:26:32.804Z,1.58
2022-09-17T06:29:28.424Z,1.60
2022-09-17T06:32:13.061Z,1.50
2022-09-17T06:34:57.425Z,1.42
2022-09-17T06:37:40.954Z,1.70
2022-09-17T06:40:23.863Z,3.13
2022-09-17T06:43:07.323Z,2.75
2022-09-17T06:45:54.621Z,2.45
2022-09-17T06:48:38.760Z,1.60
2022-09-17T06:51:22.608Z,1.75
2022-09-17T06:54:05.810Z,1.88
2022-09-17T06:56:48.582Z,2.00
2022-09-17T06:59:31.378Z,2.10
2022-09-17T07:02:15.900Z,2.50
2022-09-17T07:07:41.437Z,1.80
2022-09-17T07:10:24.427Z,2.30
2022-09-17T07:13:07.310Z,2.15
2022-09-17T07:15:54.552Z,2.22
2022-09-17T07:18:39.945Z,2.00
2022-09-17T07:21:22.744Z,2.30
2022-09-17T07:24:05.971Z,2.10
2022-09-17T07:26:49.252Z,2.40
2022-09-17T07:29:32.289Z,2.92
2022-09-17T07:32:15.081Z,2.90
2022-09-17T07:34:59.211Z,1.77
2022-09-17T07:37:42.079Z,1.90
2022-09-17T07:40:24.868Z,2.03
2022-09-17T07:43:08.988Z,2.00
2022-09-17T07:45:52.558Z,2.13
2022-09-17T07:48:36.021Z,1.80
2022-09-17T07:51:22.934Z,2.08
2022-09-17T07:54:07.191Z,1.80
2022-09-17T07:56:50.007Z,2.17
2022-09-17T07:59:32.876Z,2.30
2022-09-17T08:02:17.820Z,1.90
2022-09-17T08:05:03.522Z,1.80
2022-09-17T08:07:50.857Z,1.10
2022-09-17T08:10:33.807Z,0.88
2022-09-17T08:13:16.573Z,0.80
2022-09-17T08:16:01.096Z,0.47
2022-09-17T08:18:44.914Z,0.93
2022-09-17T08:21:27.997Z,1.90
2022-09-17T08:24:12.224Z,1.40
2022-09-17T08:26:55.327Z,1.80
2022-09-17T08:29:38.089Z,1.67
2022-09-17T08:32:21.143Z,1.00
2022-09-17T08:35:04.022Z,1.00
2022-09-17T08:37:47.460Z,1.30
2022-09-17T08:40:31.695Z,1.40
2022-09-17T08:43:20.051Z,1.60
2022-09-17T08:46:02.980Z,1.83
2022-09-17T08:48:52.549Z,1.70
2022-09-17T08:51:48.810Z,2.20
2022-09-17T08:54:39.255Z,1.95
2022-09-17T08:57:39.639Z,1.63
2022-09-17T09:00:24.500Z,1.77
2022-09-17T09:03:22.565Z,2.00
2022-09-17T09:06:10.741Z,1.70
2022-09-17T09:09:01.501Z,1.35
2022-09-17T09:11:45.368Z,1.30
2022-09-17T09:14:36.020Z,1.30
2022-09-17T09:17:22.426Z,1.45
2022-09-17T09:20:06.763Z,1.30
2022-09-17T09:22:52.072Z,1.50
2022-09-17T09:25:44.827Z,1.70
2022-09-17T09:28:38.127Z,1.27
2022-09-17T09:31:37.762Z,1.10
2022-09-17T09:34:21.418Z,1.33
2022-09-17T09:37:15.324Z,1.08
2022-09-17T09:40:06.266Z,0.60
2022-09-17T09:42:49.985Z,0.77
2022-09-17T09:45:51.360Z,0.60
2022-09-17T09:48:45.193Z,0.30
2022-09-17T09:51:40.006Z,0.40
2022-09-17T09:54:35.237Z,0.30
2022-09-17T09:57:23.435Z,0.40
2022-09-17T10:00:30.465Z,0.35
2022-09-17T10:03:17.730Z,0.80
2022-09-17T10:06:04.601Z,0.38
2022-09-17T10:09:12.125Z,0.30
2022-09-17T10:12:03.636Z,0.40
2022-09-17T10:14:47.590Z,0.35
2022-09-17T10:17:30.416Z,0.38
2022-09-17T10:20:22.227Z,0.35
2022-09-17T10:23:08.087Z,0.30
2022-09-17T10:25:52.199Z,0.47
2022-09-17T10:28:46.715Z,0.55
2022-09-17T10:31:46.970Z,0.50
2022-09-17T10:34:31.880Z,0.32
2022-09-17T10:37:34.905Z,0.60
2022-09-17T10:40:36.775Z,0.60
2022-09-17T10:43:24.426Z,0.57
2022-09-17T10:46:10.449Z,0.60
2022-09-17T10:49:00.447Z,0.40
2022-09-17T10:51:43.404Z,0.40
2022-09-17T10:54:42.373Z,0.50
2022-09-17T10:57:38.344Z,0.28
2022-09-17T11:00:23.274Z,0.30
2022-09-17T11:03:52.710Z,0.25
2022-09-17T11:06:52.482Z,0.20
2022-09-17T11:09:51.052Z,0.30
2022-09-17T11:12:49.155Z,0.30
2022-09-17T11:15:52.155Z,0.30
2022-09-17T11:18:42.017Z,0.43
2022-09-17T11:21:40.129Z,0.30
2022-09-17T11:24:45.796Z,0.70
2022-09-17T11:27:46.456Z,1.55
2022-09-17T11:30:34.930Z,2.00
2022-09-17T11:33:47.917Z,1.10
2022-09-17T11:36:36.135Z,0.90
2022-09-17T11:39:24.164Z,0.90
2022-09-17T11:42:12.036Z,0.57
2022-09-17T11:45:00.151Z,0.70
2022-09-17T11:47:48.362Z,0.45
2022-09-17T11:50:33.968Z,0.50
2022-09-17T11:53:23.183Z,0.50
2022-09-17T11:56:16.772Z,2.63
2022-09-17T11:59:05.825Z,1.00
2022-09-17T12:01:54.142Z,0.70
2022-09-17T12:04:45.690Z,0.70
2022-09-17T12:07:42.180Z,1.00
2022-09-17T12:10:38.255Z,0.68
2022-09-17T12:13:31.467Z,0.52
2022-09-17T12:16:20.367Z,0.73
2022-09-17T12:19:13.446Z,0.70
2022-09-17T12:22:00.896Z,0.60
2022-09-17T12:24:43.886Z,1.88
2022-09-17T12:27:40.037Z,0.80
2022-09-17T12:30:26.401Z,0.70
2022-09-17T12:33:25.973Z,0.50
2022-09-17T12:36:28.539Z,0.60
2022-09-17T12:39:32.099Z,0.70
2022-09-17T12:42:25.860Z,0.75
2022-09-17T12:45:27.364Z,0.70
2022-09-17T12:48:50.088Z,0.73
2022-09-17T12:51:52.164Z,0.77
2022-09-17T12:54:57.627Z,0.80
2022-09-17T13:00:41.431Z,0.80
2022-09-17T13:03:28.725Z,1.00
2022-09-17T13:06:58.815Z,1.10
2022-09-17T13:10:04.510Z,1.10
2022-09-17T13:12:51.161Z,1.30
2022-09-17T13:15:59.191Z,1.35
2022-09-17T13:19:12.317Z,1.48
2022-09-17T13:21:55.707Z,1.30
2022-09-17T13:24:39.351Z,1.27
2022-09-17T13:27:26.603Z,1.50
2022-09-17T13:30:10.976Z,1.40
2022-09-17T13:32:55.186Z,1.30
2022-09-17T13:35:51.632Z,1.92
2022-09-17T13:38:44.023Z,1.40
2022-09-17T13:41:28.210Z,1.55
2022-09-17T13:44:12.641Z,1.13
2022-09-17T13:47:11.706Z,1.35
2022-09-17T13:49:58.862Z,1.60
2022-09-17T13:52:46.428Z,1.52
2022-09-17T13:55:37.669Z,1.58
2022-09-17T13:58:25.506Z,1.33
2022-09-17T14:01:12.055Z,1.60
2022-09-17T14:03:57.139Z,1.77
2022-09-17T14:09:50.631Z,1.85
2022-09-17T14:12:56.065Z,1.83
2022-09-17T14:18:45.447Z,1.40
2022-09-17T14:21:31.755Z,1.63
2022-09-17T14:24:22.923Z,1.38
2022-09-17T14:27:16.762Z,1.60
2022-09-17T14:30:12.302Z,2.22
2022-09-17T14:33:06.515Z,1.80
2022-09-17T14:35:53.056Z,1.67
2022-09-17T14:38:44.618Z,1.50
2022-09-17T14:41:32.785Z,1.40
2022-09-17T14:44:19.806Z,1.80
2022-09-17T14:47:08.631Z,1.73
2022-09-17T14:49:52.456Z,1.65
2022-09-17T14:52:35.239Z,1.45
2022-09-17T14:55:21.258Z,1.40
2022-09-17T14:58:04.873Z,1.63
2022-09-17T15:00:53.951Z,2.60
2022-09-17T15:03:38.153Z,2.47
2022-09-17T15:06:22.376Z,1.80
2022-09-17T15:09:05.366Z,1.65
2022-09-17T15:11:49.080Z,1.33
2022-09-17T15:14:34.630Z,1.27
2022-09-17T15:17:20.087Z,1.77
2022-09-17T15:20:07.913Z,1.40
2022-09-17T15:22:57.635Z,1.58
2022-09-17T15:25:42.338Z,1.20
2022-09-17T15:31:18.630Z,1.40
2022-09-17T15:34:01.751Z,1.40
2022-09-17T15:37:05.114Z,2.28
2022-09-17T15:39:53.020Z,2.00
2022-09-17T15:42:36.015Z,1.55
2022-09-17T15:45:20.461Z,2.08
2022-09-17T15:48:05.036Z,1.77
2022-09-17T15:50:55.292Z,1.30
2022-09-17T15:53:39.762Z,1.88
2022-09-17T15:56:26.462Z,1.83
2022-09-17T15:59:25.855Z,0.82
2022-09-17T16:02:27.254Z,0.68
2022-09-17T16:05:47.262Z,0.60
2022-09-17T16:08:35.965Z,0.45
2022-09-17T16:11:22.139Z,0.40
2022-09-17T16:14:04.901Z,0.70
2022-09-17T16:16:48.080Z,0.52
2022-09-17T16:19:30.853Z,0.65
2022-09-17T16:22:13.656Z,1.00
2022-09-17T16:24:56.607Z,0.80
2022-09-17T16:27:47.367Z,0.80
2022-09-17T16:30:30.526Z,1.08
2022-09-17T16:33:14.634Z,0.75
2022-09-17T16:35:58.768Z,0.60
2022-09-17T16:38:41.634Z,0.40
2022-09-17T16:41:24.451Z,0.52
2022-09-17T16:44:09.024Z,0.45
2022-09-17T16:46:51.818Z,0.50
2022-09-17T16:49:34.671Z,0.50
2022-09-17T16:52:17.412Z,0.30
2022-09-17T16:55:00.246Z,0.30
2022-09-17T16:57:43.262Z,0.30
2022-09-17T17:00:27.470Z,0.40
2022-09-17T17:03:12.907Z,0.60
2022-09-17T17:05:55.667Z,0.60
2022-09-17T17:08:38.517Z,0.50
2022-09-17T17:11:21.297Z,0.50
2022-09-17T17:14:05.352Z,0.40
2022-09-17T17:16:49.508Z,0.40
2022-09-17T17:19:33.094Z,0.50
2022-09-17T17:22:16.663Z,0.50
2022-09-17T17:24:59.543Z,0.50
2022-09-17T17:27:44.472Z,0.50
2022-09-17T17:30:31.724Z,0.60
2022-09-17T17:33:18.404Z,0.80
2022-09-17T17:36:07.352Z,0.90
2022-09-17T17:38:50.872Z,0.80
2022-09-17T17:41:33.709Z,0.85
2022-09-17T17:44:16.561Z,0.68
2022-09-17T17:46:59.460Z,1.25
2022-09-17T17:49:44.674Z,3.28
2022-09-17T17:52:27.623Z,1.60
2022-09-17T17:55:10.466Z,9.05
2022-09-17T17:58:01.032Z,11.50
2022-09-17T18:00:44.683Z,9.10
2022-09-17T18:03:27.579Z,3.63
2022-09-17T18:06:11.726Z,2.50
2022-09-17T18:08:54.915Z,2.28
2022-09-17T18:11:37.766Z,3.28
2022-09-17T18:14:20.799Z,2.47
2022-09-17T18:17:03.652Z,2.00
2022-09-17T18:19:46.481Z,1.80
2022-09-17T18:22:30.596Z,10.45
2022-09-17T18:25:13.486Z,4.68
2022-09-17T18:27:56.263Z,8.82
2022-09-17T18:30:39.077Z,7.60
2022-09-17T18:33:24.471Z,18.08
2022-09-17T18:36:07.684Z,25.25
2022-09-17T18:38:54.171Z,30.27
2022-09-17T18:41:40.328Z,33.13
2022-09-17T18:44:23.105Z,30.23
2022-09-17T18:47:06.191Z,29.67
2022-09-17T18:49:48.948Z,17.08
2022-09-17T18:52:31.771Z,8.65
2022-09-17T18:55:16.054Z,7.00
2022-09-17T18:57:58.819Z,3.40
2022-09-17T19:00:42.762Z,3.10
2022-09-17T19:03:25.594Z,3.58
2022-09-17T19:06:10.147Z,3.38
2022-09-17T19:08:54.882Z,3.08
2022-09-17T19:14:21.589Z,2.20
2022-09-17T19:17:04.478Z,5.28
2022-09-17T19:19:47.251Z,6.55
2022-09-17T19:22:30.071Z,10.35
2022-09-17T19:25:12.900Z,7.40
2022-09-17T19:27:57.833Z,11.50
2022-09-17T19:30:40.672Z,7.07
2022-09-17T19:33:23.454Z,5.43
2022-09-17T19:36:10.482Z,8.93
2022-09-17T19:38:53.330Z,6.30
2022-09-17T19:41:36.348Z,4.32
2022-09-17T19:44:20.640Z,8.00
2022-09-17T19:47:03.482Z,4.47
2022-09-17T19:49:48.818Z,3.50
2022-09-17T19:52:31.604Z,3.80
2022-09-17T19:55:14.725Z,4.93
2022-09-17T19:58:03.754Z,8.13
2022-09-17T20:00:48.033Z,8.32
2022-09-17T20:03:31.035Z,10.68
2022-09-17T20:06:15.911Z,12.05
2022-09-17T20:08:59.357Z,7.75
2022-09-17T20:11:42.218Z,13.65
2022-09-17T20:14:24.978Z,4.30
2022-09-17T20:17:09.064Z,3.08
2022-09-17T20:19:51.956Z,7.30
2022-09-17T20:22:34.850Z,3.92
2022-09-17T20:25:17.619Z,11.00
2022-09-17T20:28:01.501Z,4.35
2022-09-17T20:30:44.270Z,5.47
2022-09-17T20:33:29.034Z,1.60
2022-09-17T20:36:14.776Z,1.90
2022-09-17T20:39:21.161Z,2.35
2022-09-17T20:42:02.930Z,2.97
2022-09-17T20:44:45.782Z,1.30
2022-09-17T20:47:28.530Z,1.00
2022-09-17T20:50:12.795Z,0.90
2022-09-17T20:52:55.613Z,0.90
2022-09-17T20:55:38.388Z,1.05
2022-09-17T20:58:21.469Z,1.10
2022-09-17T21:01:08.962Z,1.00
2022-09-17T21:03:53.427Z,0.85
2022-09-17T21:06:39.135Z,0.70
2022-09-17T21:09:21.945Z,0.63
2022-09-17T21:12:04.899Z,1.25
2022-09-17T21:14:47.702Z,0.68
2022-09-17T21:17:33.902Z,0.60
2022-09-17T21:20:16.864Z,0.63
2022-09-17T21:23:01.033Z,0.50
2022-09-17T21:25:43.928Z,0.60
2022-09-17T21:28:26.736Z,0.50
2022-09-17T21:31:12.249Z,0.80
2022-09-17T21:33:56.681Z,0.70
2022-09-17T21:36:41.024Z,0.40
2022-09-17T21:39:25.212Z,0.45
2022-09-17T21:42:08.005Z,0.57
2022-09-17T21:44:50.781Z,0.50
2022-09-17T21:47:33.909Z,0.50
2022-09-17T21:50:16.718Z,0.43
2022-09-17T21:52:59.467Z,0.40
2022-09-17T21:55:43.598Z,0.50
2022-09-17T21:58:26.378Z,0.40
2022-09-17T22:01:10.961Z,0.60
2022-09-17T22:03:56.402Z,0.35
2022-09-17T22:06:39.338Z,0.55
2022-09-17T22:09:23.977Z,0.45
2022-09-17T22:14:51.036Z,0.60
2022-09-17T22:17:33.817Z,0.50
2022-09-17T22:20:16.839Z,0.50
2022-09-17T22:22:59.643Z,0.40
2022-09-17T22:25:42.544Z,0.40
2022-09-17T22:28:27.049Z,0.55
2022-09-17T22:31:12.072Z,0.50
2022-09-17T22:33:54.886Z,0.32
2022-09-17T22:36:38.438Z,0.40
2022-09-17T22:39:22.083Z,0.45
2022-09-17T22:42:05.185Z,0.55
2022-09-17T22:44:49.320Z,0.40
2022-09-17T22:47:32.102Z,0.50
2022-09-17T22:50:15.011Z,0.57
2022-09-17T22:52:57.759Z,0.30
2022-09-17T22:55:40.530Z,0.43
2022-09-17T22:58:24.490Z,0.32
2022-09-17T23:01:11.386Z,0.43
2022-09-17T23:03:54.276Z,0.40
2022-09-17T23:06:39.284Z,0.60
2022-09-17T23:09:22.080Z,0.30
2022-09-17T23:12:05.290Z,0.60
2022-09-17T23:14:48.111Z,0.50
2022-09-17T23:17:32.279Z,0.60
2022-09-17T23:20:15.494Z,0.60
2022-09-17T23:22:58.345Z,0.50
2022-09-17T23:25:41.075Z,0.60
2022-09-17T23:28:24.030Z,0.50
2022-09-17T23:31:11.147Z,0.70
2022-09-17T23:33:56.361Z,0.40
2022-09-17T23:36:40.232Z,0.57
2022-09-17T23:39:23.217Z,0.80
2022-09-17T23:42:06.108Z,0.70
2022-09-17T23:44:48.901Z,0.63
2022-09-17T23:47:31.686Z,0.60
2022-09-17T23:50:16.198Z,0.70
2022-09-17T23:52:59.134Z,0.70
2022-09-17T23:55:47.210Z,0.70
2022-09-17T23:58:30.637Z,0.60
